Time;durP1;ratioP1;P1;durP2;ratioP2;P2;SDS_P1;SDS_P2;PMS_P1;PMS_P2;Temp;Humidity;BMP_temperature;BMP_pressure;BME280_temperature;BME280_humidity;BME280_pressure;Samples;Min_cycle;Max_cycle;Signal;HPM_P1;HPM_P2
2021/05/12 00:01:40;;;;;;;11.82;9.10;;;12.90;99.90;;;;;;5056105;28;20163;-84
2021/05/12 00:04:07;;;;;;;12.55;8.80;;;12.90;99.90;;;;;;5045681;28;20084;-84
2021/05/12 00:06:34;;;;;;;12.55;9.23;;;12.80;99.90;;;;;;5044662;28;20168;-84
2021/05/12 00:09:00;;;;;;;13.98;9.90;;;12.80;99.90;;;;;;5061751;28;20052;-85
2021/05/12 00:11:27;;;;;;;13.48;9.85;;;12.80;99.90;;;;;;5060630;28;20103;-84
2021/05/12 00:13:54;;;;;;;17.60;9.40;;;12.70;99.90;;;;;;5049307;28;20106;-84
2021/05/12 00:16:21;;;;;;;14.23;9.80;;;12.70;99.90;;;;;;5047599;28;20495;-84
2021/05/12 00:18:48;;;;;;;15.85;10.50;;;12.60;99.90;;;;;;5045418;28;20053;-83
2021/05/12 00:21:30;;;;;;;13.48;10.23;;;12.60;99.90;;;;;;5056352;28;20053;-83
2021/05/12 00:24:00;;;;;;;16.58;9.85;;;12.60;99.90;;;;;;5053936;28;20059;-84
2021/05/12 00:26:37;;;;;;;20.00;11.35;;;12.50;99.90;;;;;;5046494;28;20115;-84
2021/05/12 00:29:06;;;;;;;16.73;11.02;;;12.40;99.90;;;;;;5050149;28;20053;-84
2021/05/12 00:31:33;;;;;;;15.20;9.93;;;12.40;99.90;;;;;;5050316;28;20056;-84
2021/05/12 00:34:00;;;;;;;14.30;10.63;;;12.30;99.90;;;;;;5048793;28;20404;-84
2021/05/12 00:36:27;;;;;;;21.15;10.88;;;12.30;99.90;;;;;;5050965;28;20072;-84
2021/05/12 00:39:00;;;;;;;18.65;11.02;;;12.20;99.90;;;;;;5050126;28;20057;-84
2021/05/12 00:41:27;;;;;;;16.05;11.20;;;12.20;99.90;;;;;;5047690;28;20087;-85
2021/05/12 00:43:54;;;;;;;18.15;11.13;;;12.10;99.90;;;;;;5050682;28;20053;-85
2021/05/12 00:46:21;;;;;;;18.58;10.98;;;12.00;99.90;;;;;;5054941;28;20053;-84
2021/05/12 00:48:48;;;;;;;15.68;11.70;;;12.00;99.90;;;;;;5065744;28;20060;-84
2021/05/12 00:51:15;;;;;;;17.23;11.00;;;12.00;99.90;;;;;;5056688;28;20431;-84
2021/05/12 00:53:42;;;;;;;21.80;11.90;;;11.90;99.90;;;;;;5053942;28;20053;-83
2021/05/12 00:56:12;;;;;;;19.15;11.63;;;11.90;99.90;;;;;;5050649;28;20049;-84
2021/05/12 00:58:39;;;;;;;15.40;11.07;;;11.80;99.90;;;;;;5073697;28;20488;-84
2021/05/12 01:01:05;;;;;;;21.25;12.85;;;11.80;99.90;;;;;;5057980;28;20068;-83
2021/05/12 01:03:32;;;;;;;20.00;11.75;;;11.70;99.90;;;;;;5055520;28;20057;-84
2021/05/12 01:06:00;;;;;;;15.55;10.65;;;11.70;99.90;;;;;;5057863;28;20148;-84
2021/05/12 01:08:28;;;;;;;18.98;12.82;;;11.60;99.90;;;;;;5050993;28;20438;-84
2021/05/12 01:10:56;;;;;;;17.00;12.07;;;11.60;99.90;;;;;;5058851;28;20122;-85
2021/05/12 01:13:24;;;;;;;22.75;13.07;;;11.50;99.90;;;;;;5048175;28;20060;-85
2021/05/12 01:15:51;;;;;;;22.65;12.60;;;11.50;99.90;;;;;;5047555;28;20100;-85
2021/05/12 01:18:20;;;;;;;25.40;13.15;;;11.50;99.90;;;;;;5044399;28;20053;-84
2021/05/12 01:20:59;;;;;;;22.10;12.52;;;11.40;99.90;;;;;;5042655;28;20053;-85
2021/05/12 01:23:30;;;;;;;25.73;12.93;;;11.40;99.90;;;;;;5046558;28;20052;-85
2021/05/12 01:25:58;;;;;;;23.58;13.60;;;11.40;99.90;;;;;;5048080;28;20481;-84
2021/05/12 01:28:31;;;;;;;24.20;13.73;;;11.30;99.90;;;;;;5037515;28;20139;-84
2021/05/12 01:31:05;;;;;;;24.27;13.43;;;11.30;99.90;;;;;;5045030;28;20144;-85
2021/05/12 01:33:32;;;;;;;24.73;12.98;;;11.20;99.90;;;;;;5047252;28;20056;-85
2021/05/12 01:35:59;;;;;;;32.17;14.25;;;11.20;99.90;;;;;;5043423;28;20134;-85
2021/05/12 01:38:27;;;;;;;27.90;13.45;;;11.20;99.90;;;;;;5045933;28;20108;-85
2021/05/12 01:40:55;;;;;;;25.52;13.32;;;11.20;99.90;;;;;;5045025;28;20053;-85
2021/05/12 01:43:23;;;;;;;25.00;13.05;;;11.10;99.90;;;;;;5046467;28;20163;-84
2021/05/12 01:45:50;;;;;;;26.35;13.63;;;11.10;99.90;;;;;;5047864;28;20049;-85
2021/05/12 01:48:17;;;;;;;31.80;13.27;;;11.10;99.90;;;;;;5047419;28;20130;-85
2021/05/12 01:50:45;;;;;;;33.13;14.18;;;11.10;99.90;;;;;;5042403;28;20036;-85
2021/05/12 01:53:13;;;;;;;26.67;12.60;;;11.00;99.90;;;;;;5047210;28;20057;-85
2021/05/12 01:55:41;;;;;;;21.65;12.23;;;11.00;99.90;;;;;;5047134;28;20053;-85
2021/05/12 01:58:08;;;;;;;23.73;12.90;;;11.00;99.90;;;;;;5045958;28;20053;-84
2021/05/12 02:00:46;;;;;;;23.75;13.30;;;10.90;99.90;;;;;;5048046;28;20056;-84
2021/05/12 02:03:14;;;;;;;24.20;12.63;;;10.90;99.90;;;;;;5045773;28;20122;-84
2021/05/12 02:08:29;;;;;;;27.40;13.30;;;10.80;99.90;;;;;;5048829;28;20083;-84
2021/05/12 02:11:03;;;;;;;30.00;14.70;;;10.80;99.90;;;;;;5048622;28;20068;-84
2021/05/12 02:13:31;;;;;;;36.78;15.77;;;10.80;99.90;;;;;;5048779;28;20136;-84
2021/05/12 02:16:00;;;;;;;26.42;13.73;;;10.70;99.90;;;;;;5047677;28;20080;-84
2021/05/12 02:18:27;;;;;;;33.40;15.30;;;10.80;99.90;;;;;;5047209;28;20493;-84
2021/05/12 02:20:54;;;;;;;33.38;14.43;;;10.70;99.90;;;;;;5047450;28;20081;-84
2021/05/12 02:23:23;;;;;;;30.33;14.57;;;10.70;99.90;;;;;;5044151;28;20112;-84
2021/05/12 02:25:54;;;;;;;25.48;13.32;;;10.60;99.90;;;;;;5055375;28;20412;-84
2021/05/12 02:28:21;;;;;;;30.02;13.25;;;10.60;99.90;;;;;;5046401;28;20092;-84
2021/05/12 02:30:48;;;;;;;26.85;13.50;;;10.60;99.90;;;;;;5030562;28;20514;-84
2021/05/12 02:33:17;;;;;;;32.95;14.65;;;10.50;99.90;;;;;;5047434;28;20112;-85
2021/05/12 02:35:47;;;;;;;26.45;14.07;;;10.50;99.90;;;;;;5055297;28;20056;-84
2021/05/12 02:38:14;;;;;;;27.52;13.82;;;10.50;99.90;;;;;;5048756;28;20384;-84
2021/05/12 02:40:41;;;;;;;27.15;12.93;;;10.40;99.90;;;;;;5046494;28;20049;-84
2021/05/12 02:43:08;;;;;;;26.92;13.70;;;10.40;99.90;;;;;;5064436;28;20049;-83
2021/05/12 02:45:35;;;;;;;26.27;14.25;;;10.30;99.90;;;;;;5047246;28;20061;-85
2021/05/12 02:48:04;;;;;;;23.73;13.25;;;10.30;99.90;;;;;;5048880;28;20063;-83
2021/05/12 02:50:37;;;;;;;23.08;13.20;;;10.30;99.90;;;;;;5048310;28;20063;-84
2021/05/12 02:53:06;;;;;;;27.90;13.55;;;10.20;99.90;;;;;;5047602;28;20407;-85
2021/05/12 02:55:34;;;;;;;29.42;15.95;;;10.20;99.90;;;;;;5063004;28;20117;-84
2021/05/12 02:58:05;;;;;;;29.83;15.65;;;10.20;99.90;;;;;;5047659;28;20049;-84
2021/05/12 03:00:33;;;;;;;29.80;15.27;;;10.20;99.90;;;;;;5047027;28;20076;-84
2021/05/12 03:03:00;;;;;;;30.83;14.98;;;10.20;99.90;;;;;;5046980;28;20053;-84
2021/05/12 03:05:29;;;;;;;28.90;15.27;;;10.20;99.90;;;;;;5048431;28;20121;-83
2021/05/12 03:07:57;;;;;;;26.88;15.35;;;10.10;99.90;;;;;;5062914;28;20535;-85
2021/05/12 03:10:26;;;;;;;31.27;15.57;;;10.10;99.90;;;;;;5046570;28;20136;-84
2021/05/12 03:12:53;;;;;;;30.65;16.33;;;10.10;99.90;;;;;;5047701;28;20072;-83
2021/05/12 03:15:22;;;;;;;28.70;17.08;;;10.10;99.90;;;;;;5053585;28;20087;-84
2021/05/12 03:17:50;;;;;;;29.20;16.38;;;10.10;99.90;;;;;;5045925;28;20566;-84
2021/05/12 03:20:18;;;;;;;30.98;16.45;;;10.00;99.90;;;;;;5047314;28;20568;-84
2021/05/12 03:22:46;;;;;;;27.75;17.15;;;10.00;99.90;;;;;;5055395;28;20124;-84
2021/05/12 03:25:14;;;;;;;36.00;17.70;;;9.90;99.90;;;;;;5046825;28;20049;-83
2021/05/12 03:27:41;;;;;;;31.73;18.30;;;9.90;99.90;;;;;;5042293;28;20079;-84
2021/05/12 03:30:11;;;;;;;29.83;17.00;;;9.80;99.90;;;;;;5045431;28;20113;-84
2021/05/12 03:32:39;;;;;;;30.38;17.27;;;9.80;99.90;;;;;;5041774;28;20056;-84
2021/05/12 03:35:06;;;;;;;31.80;16.55;;;9.80;99.90;;;;;;5048389;28;20052;-83
2021/05/12 03:37:34;;;;;;;31.33;17.25;;;9.70;99.90;;;;;;5044041;28;20418;-85
2021/05/12 03:40:00;;;;;;;30.00;16.52;;;9.70;99.90;;;;;;5047740;28;20072;-83
2021/05/12 03:42:27;;;;;;;31.92;17.38;;;9.70;99.90;;;;;;5046635;28;20466;-84
2021/05/12 03:44:56;;;;;;;35.33;17.10;;;9.60;99.90;;;;;;5055108;28;20045;-83
2021/05/12 03:47:23;;;;;;;36.40;17.50;;;9.60;99.90;;;;;;5041127;28;20064;-83
2021/05/12 03:49:50;;;;;;;31.02;17.73;;;9.60;99.90;;;;;;5050493;28;20327;-84
2021/05/12 03:52:16;;;;;;;33.10;17.65;;;9.50;99.90;;;;;;5049871;28;20552;-84
2021/05/12 03:54:43;;;;;;;29.80;17.67;;;9.50;99.90;;;;;;5050457;28;20059;-84
2021/05/12 03:57:10;;;;;;;34.40;17.02;;;9.50;99.90;;;;;;5047854;28;20104;-84
2021/05/12 03:59:37;;;;;;;31.50;16.52;;;9.50;99.90;;;;;;5054334;28;20076;-84
2021/05/12 04:02:04;;;;;;;28.40;16.85;;;9.60;99.90;;;;;;5049644;28;20051;-84
2021/05/12 04:04:31;;;;;;;37.33;17.45;;;9.60;99.90;;;;;;5047460;28;20052;-84
2021/05/12 04:06:57;;;;;;;29.70;17.10;;;9.50;99.90;;;;;;5049630;28;20053;-84
2021/05/12 04:09:24;;;;;;;34.17;16.27;;;9.60;99.90;;;;;;5053971;28;20160;-84
2021/05/12 04:11:51;;;;;;;30.98;16.35;;;9.60;99.90;;;;;;5049582;28;20044;-84
2021/05/12 04:14:18;;;;;;;29.67;15.80;;;9.60;99.90;;;;;;5042003;28;20477;-84
2021/05/12 04:16:47;;;;;;;30.05;16.35;;;9.50;99.90;;;;;;5056451;28;20155;-84
2021/05/12 04:19:15;;;;;;;29.63;15.88;;;9.50;99.90;;;;;;5045365;28;20110;-83
2021/05/12 04:21:41;;;;;;;33.22;15.80;;;9.50;99.90;;;;;;5046686;28;20057;-83
2021/05/12 04:24:09;;;;;;;26.63;15.15;;;9.50;99.90;;;;;;5047465;28;20025;-83
2021/05/12 04:26:36;;;;;;;25.55;15.18;;;9.50;99.90;;;;;;5048280;28;20048;-84
2021/05/12 04:29:04;;;;;;;24.55;14.77;;;9.50;99.90;;;;;;5045992;28;20132;-84
2021/05/12 04:31:32;;;;;;;30.05;16.50;;;9.50;99.90;;;;;;5042241;28;20160;-84
2021/05/12 04:33:59;;;;;;;29.08;15.60;;;9.50;99.90;;;;;;5046522;28;20048;-85
2021/05/12 04:36:26;;;;;;;27.23;15.90;;;9.50;99.90;;;;;;5048572;28;20088;-84
2021/05/12 04:38:52;;;;;;;24.67;15.40;;;9.60;99.90;;;;;;5048447;28;20037;-84
2021/05/12 04:41:20;;;;;;;26.40;14.93;;;9.60;99.90;;;;;;5047879;28;20064;-84
2021/05/12 04:43:47;;;;;;;20.00;13.40;;;9.60;99.90;;;;;;5044300;28;20108;-84
2021/05/12 04:46:14;;;;;;;26.08;13.48;;;9.60;99.90;;;;;;5048833;28;20049;-84
2021/05/12 04:48:41;;;;;;;27.75;15.45;;;9.60;99.90;;;;;;5065303;28;20075;-84
2021/05/12 04:51:08;;;;;;;28.65;14.02;;;9.60;99.90;;;;;;5051902;28;20144;-84
2021/05/12 04:53:38;;;;;;;23.33;12.98;;;9.60;99.90;;;;;;5057177;28;20469;-84
2021/05/12 04:56:05;;;;;;;22.00;13.30;;;9.60;99.90;;;;;;5059901;28;20045;-84
2021/05/12 04:58:32;;;;;;;23.65;12.43;;;9.60;99.90;;;;;;5062282;28;20033;-84
2021/05/12 05:00:59;;;;;;;23.17;13.48;;;9.60;99.90;;;;;;5063818;28;20036;-84
2021/05/12 05:03:26;;;;;;;26.95;11.85;;;9.60;99.90;;;;;;5061852;28;20112;-85
2021/05/12 05:05:53;;;;;;;24.17;12.55;;;9.70;99.90;;;;;;5061508;28;20055;-84
2021/05/12 05:08:20;;;;;;;23.90;13.15;;;9.70;99.90;;;;;;5061590;28;20075;-86
2021/05/12 05:10:48;;;;;;;30.73;13.43;;;9.70;99.90;;;;;;5060935;28;20045;-83
2021/05/12 05:13:15;;;;;;;21.83;12.65;;;9.80;99.90;;;;;;5052687;28;20068;-84
2021/05/12 05:15:42;;;;;;;23.48;12.45;;;9.80;99.90;;;;;;5045428;28;20514;-83
2021/05/12 05:18:09;;;;;;;24.05;12.30;;;9.80;99.90;;;;;;5054776;28;20049;-82
2021/05/12 05:20:36;;;;;;;22.98;12.27;;;9.90;99.90;;;;;;5044348;28;20084;-83
2021/05/12 05:23:05;;;;;;;20.00;10.18;;;9.90;99.90;;;;;;5042139;28;20076;-84
2021/05/12 05:25:32;;;;;;;21.77;11.13;;;10.00;99.90;;;;;;5028895;28;20079;-82
2021/05/12 05:27:59;;;;;;;19.90;10.68;;;10.00;99.90;;;;;;5041098;28;20523;-82
2021/05/12 05:30:26;;;;;;;16.92;8.80;;;10.10;99.90;;;;;;5034119;28;20061;-82
2021/05/12 05:33:00;;;;;;;16.55;8.82;;;10.30;99.90;;;;;;5044605;28;20049;-83
2021/05/12 05:35:27;;;;;;;;;;;10.40;99.90;;;;;;5042266;28;20073;-82
2021/05/12 05:37:54;;;;;;;14.65;7.90;;;10.50;99.90;;;;;;5044955;28;19978;-82
2021/05/12 05:40:21;;;;;;;17.08;8.73;;;10.60;99.90;;;;;;5055895;28;20076;-82
2021/05/12 05:42:58;;;;;;;18.48;8.52;;;10.80;99.90;;;;;;5054659;28;20087;-82
2021/05/12 05:45:26;;;;;;;14.68;8.40;;;10.90;99.90;;;;;;5045457;28;20053;-82
2021/05/12 05:48:01;;;;;;;17.88;7.93;;;11.00;99.90;;;;;;5026287;28;20104;-82
2021/05/12 05:50:29;;;;;;;16.90;8.68;;;11.20;99.90;;;;;;5050231;28;20077;-82
2021/05/12 05:52:56;;;;;;;15.18;8.02;;;11.30;99.90;;;;;;5037621;28;20048;-81
2021/05/12 05:55:23;;;;;;;16.70;8.05;;;11.60;99.90;;;;;;5058751;28;20408;-81
2021/05/12 05:57:51;;;;;;;18.17;8.10;;;12.00;99.90;;;;;;5039150;28;20091;-82
2021/05/12 06:00:19;;;;;;;21.80;8.27;;;12.30;99.90;;;;;;5038479;28;20052;-82
2021/05/12 06:02:48;;;;;;;16.67;7.85;;;12.60;99.90;;;;;;5050845;28;20048;-82
2021/05/12 06:05:14;;;;;;;14.75;9.00;;;12.70;99.90;;;;;;5040823;28;20041;-82
2021/05/12 06:07:41;;;;;;;17.15;7.70;;;12.80;99.90;;;;;;5042849;28;20045;-82
2021/05/12 06:10:09;;;;;;;13.85;8.43;;;12.90;99.90;;;;;;5043602;28;20052;-82
2021/05/12 06:12:36;;;;;;;19.38;7.70;;;12.80;99.90;;;;;;5044338;28;20109;-82
2021/05/12 06:15:05;;;;;;;16.08;7.65;;;12.90;99.90;;;;;;5058931;28;20033;-82
2021/05/12 06:17:44;;;;;;;15.60;7.72;;;12.80;99.90;;;;;;5057244;28;20043;-82
2021/05/12 06:20:11;;;;;;;17.70;7.18;;;12.90;99.90;;;;;;5044046;28;21739;-81
2021/05/12 06:22:38;;;;;;;16.48;8.00;;;12.90;99.90;;;;;;5041699;28;20049;-81
2021/05/12 06:25:05;;;;;;;20.00;7.35;;;13.00;99.90;;;;;;5053770;28;20055;-81
2021/05/12 06:27:32;;;;;;;13.85;6.95;;;13.10;99.90;;;;;;5042326;28;20048;-82
2021/05/12 06:29:59;;;;;;;16.73;7.50;;;13.10;99.90;;;;;;5044690;28;20095;-82
2021/05/12 06:32:26;;;;;;;18.20;7.65;;;13.20;99.90;;;;;;5038621;28;20491;-81
2021/05/12 06:34:52;;;;;;;17.63;6.47;;;13.30;99.90;;;;;;5026881;28;20045;-82
2021/05/12 06:37:19;;;;;;;14.02;6.07;;;13.50;99.90;;;;;;5044206;28;20480;-82
2021/05/12 06:39:46;;;;;;;15.05;5.28;;;13.60;99.90;;;;;;5055639;28;20452;-82
2021/05/12 06:42:13;;;;;;;13.63;5.68;;;13.70;99.90;;;;;;5060909;28;20048;-81
2021/05/12 06:44:40;;;;;;;17.10;5.70;;;13.70;99.90;;;;;;5042053;28;20407;-82
2021/05/12 06:47:07;;;;;;;12.43;4.93;;;13.80;99.90;;;;;;5040657;28;20036;-82
2021/05/12 06:49:35;;;;;;;13.25;3.75;;;13.90;99.90;;;;;;5042564;28;20095;-81
2021/05/12 06:52:02;;;;;;;15.43;2.90;;;14.00;99.90;;;;;;5034142;28;20076;-81
2021/05/12 06:54:29;;;;;;;10.95;2.55;;;14.00;99.90;;;;;;5039686;28;20051;-81
2021/05/12 06:56:59;;;;;;;13.18;2.05;;;14.10;99.90;;;;;;5040031;28;20059;-81
2021/05/12 06:59:26;;;;;;;9.13;1.63;;;14.20;99.90;;;;;;5046006;28;20052;-81
2021/05/12 07:01:53;;;;;;;16.50;2.63;;;14.20;99.90;;;;;;5037103;28;20548;-81
2021/05/12 07:04:20;;;;;;;11.07;1.80;;;14.30;99.90;;;;;;5054478;28;20166;-81
2021/05/12 07:06:48;;;;;;;15.50;2.97;;;14.40;99.90;;;;;;5042678;28;20226;-82
2021/05/12 07:09:14;;;;;;;12.50;2.72;;;14.40;99.90;;;;;;5040936;28;20140;-82
2021/05/12 07:11:41;;;;;;;12.98;2.35;;;14.50;99.90;;;;;;5044704;28;20049;-82
2021/05/12 07:14:08;;;;;;;6.10;1.70;;;14.50;99.90;;;;;;5051369;28;20142;-81
2021/05/12 07:16:35;;;;;;;11.45;2.13;;;14.60;99.90;;;;;;5056674;28;20072;-81
2021/05/12 07:19:02;;;;;;;10.70;2.03;;;14.70;99.90;;;;;;5037601;28;20059;-81
2021/05/12 07:21:29;;;;;;;13.60;2.38;;;14.80;99.90;;;;;;5037883;28;20055;-81
2021/05/12 07:23:57;;;;;;;17.50;3.13;;;14.90;99.90;;;;;;5036979;28;20049;-82
2021/05/12 07:26:25;;;;;;;9.88;1.65;;;14.90;99.90;;;;;;5041760;28;20058;-81
2021/05/12 07:28:52;;;;;;;7.50;1.50;;;15.00;99.90;;;;;;5042185;28;20139;-81
2021/05/12 07:31:20;;;;;;;6.13;1.20;;;15.10;99.90;;;;;;5051777;28;20134;-82
2021/05/12 07:33:47;;;;;;;8.32;1.40;;;15.10;99.90;;;;;;5039765;28;20137;-81
2021/05/12 07:36:14;;;;;;;5.82;1.30;;;15.30;99.90;;;;;;5050765;28;20057;-82
2021/05/12 07:38:41;;;;;;;8.23;1.90;;;15.30;99.90;;;;;;5040811;28;20564;-82
2021/05/12 07:41:08;;;;;;;6.75;1.20;;;15.40;99.90;;;;;;5053512;28;20135;-81
2021/05/12 07:43:35;;;;;;;6.07;1.73;;;15.50;99.90;;;;;;5039949;28;20507;-82
2021/05/12 07:46:02;;;;;;;6.53;1.35;;;15.60;99.90;;;;;;5040299;28;20051;-82
2021/05/12 07:48:29;;;;;;;8.38;1.80;;;15.60;99.90;;;;;;5052053;28;20079;-80
2021/05/12 07:50:57;;;;;;;10.98;1.38;;;15.60;99.90;;;;;;5043398;28;20052;-81
2021/05/12 07:53:23;;;;;;;9.05;1.45;;;15.70;99.90;;;;;;5042303;28;20091;-81
2021/05/12 07:55:50;;;;;;;11.68;1.42;;;15.80;99.90;;;;;;5056589;28;20090;-81
2021/05/12 07:58:17;;;;;;;7.75;1.38;;;15.90;99.90;;;;;;5043325;28;20037;-81
2021/05/12 08:00:47;;;;;;;7.13;1.23;;;16.00;99.90;;;;;;5043766;28;20117;-81
2021/05/12 08:03:14;;;;;;;7.53;1.70;;;16.00;99.90;;;;;;5044490;28;20057;-82
2021/05/12 08:05:41;;;;;;;7.07;1.27;;;16.00;99.90;;;;;;5033339;28;20058;-82
2021/05/12 08:08:09;;;;;;;7.65;1.30;;;16.10;99.90;;;;;;5058501;28;20076;-82
2021/05/12 08:10:36;;;;;;;11.68;1.50;;;16.20;99.90;;;;;;5042766;28;20049;-81
2021/05/12 08:13:03;;;;;;;7.35;1.10;;;16.30;99.90;;;;;;5059621;28;20068;-82
2021/05/12 08:15:30;;;;;;;6.45;1.75;;;16.30;99.90;;;;;;5042635;28;20075;-81
2021/05/12 08:17:57;;;;;;;9.27;1.48;;;16.30;99.90;;;;;;5037718;28;20094;-81
2021/05/12 08:20:24;;;;;;;5.78;1.63;;;16.40;99.90;;;;;;5041753;28;20045;-82
2021/05/12 08:22:51;;;;;;;11.18;1.38;;;16.50;99.90;;;;;;5042904;28;20044;-82
2021/05/12 08:25:18;;;;;;;11.23;2.65;;;16.50;99.90;;;;;;5041040;28;20990;-80
2021/05/12 08:27:45;;;;;;;6.47;1.27;;;16.60;99.90;;;;;;5059541;28;20588;-81
2021/05/12 08:30:13;;;;;;;7.80;2.33;;;16.60;99.90;;;;;;5041569;28;20124;-82
2021/05/12 08:32:40;;;;;;;9.35;1.52;;;16.70;99.90;;;;;;5043154;28;20053;-81
2021/05/12 08:35:07;;;;;;;9.55;2.17;;;16.60;99.90;;;;;;5044078;28;20057;-81
2021/05/12 08:37:34;;;;;;;10.10;2.05;;;16.60;99.90;;;;;;5061889;28;20138;-81
2021/05/12 08:40:00;;;;;;;8.10;1.30;;;16.70;99.90;;;;;;5047147;28;20103;-81
2021/05/12 08:42:27;;;;;;;9.00;1.48;;;16.70;99.90;;;;;;5046650;28;20385;-81
2021/05/12 08:44:56;;;;;;;5.93;1.42;;;16.90;99.90;;;;;;5044913;28;20119;-82
2021/05/12 08:47:25;;;;;;;11.25;1.38;;;16.90;99.90;;;;;;5046230;28;20060;-82
2021/05/12 08:49:54;;;;;;;10.35;2.22;;;17.00;99.90;;;;;;5060502;28;20147;-82
2021/05/12 08:52:23;;;;;;;8.23;1.40;;;17.10;99.90;;;;;;5039455;28;20057;-82
2021/05/12 08:54:50;;;;;;;9.80;2.13;;;17.20;99.90;;;;;;5045867;28;20850;-81
2021/05/12 08:57:17;;;;;;;10.82;1.40;;;17.40;99.90;;;;;;5058962;28;20116;-81
2021/05/12 08:59:44;;;;;;;10.57;1.30;;;17.60;99.90;;;;;;5046650;28;20101;-81
2021/05/12 09:02:13;;;;;;;12.15;1.65;;;17.70;99.90;;;;;;5044602;28;20049;-81
2021/05/12 09:04:40;;;;;;;9.88;2.05;;;17.60;99.90;;;;;;5059380;28;20080;-81
2021/05/12 09:07:07;;;;;;;11.02;1.90;;;17.70;99.90;;;;;;5044340;28;20057;-81
2021/05/12 09:09:35;;;;;;;11.90;1.95;;;17.80;99.90;;;;;;5050710;28;20077;-80
2021/05/12 09:12:02;;;;;;;9.20;1.27;;;18.00;99.90;;;;;;5045010;28;20079;-81
2021/05/12 09:14:33;;;;;;;5.97;1.98;;;18.00;99.90;;;;;;5048485;28;20049;-80
2021/05/12 09:17:00;;;;;;;14.25;2.42;;;18.20;99.90;;;;;;5045040;28;20108;-80
2021/05/12 09:19:28;;;;;;;12.18;1.88;;;18.40;99.90;;;;;;5059531;28;20045;-80
2021/05/12 09:22:04;;;;;;;8.95;2.03;;;18.70;99.90;;;;;;5045426;28;20075;-81
2021/05/12 09:24:30;;;;;;;15.77;2.15;;;18.70;99.90;;;;;;5061083;28;20080;-81
2021/05/12 09:27:11;;;;;;;9.40;1.27;;;18.80;99.90;;;;;;5046268;28;21630;-81
2021/05/12 09:29:41;;;;;;;10.57;2.25;;;18.80;99.90;;;;;;5061256;28;20052;-81
2021/05/12 09:32:10;;;;;;;12.68;2.00;;;18.80;99.90;;;;;;5043200;28;20048;-81
2021/05/12 09:35:02;;;;;;;9.23;2.50;;;18.90;99.60;;;;;;5044685;28;20526;-81
2021/05/12 09:37:37;;;;;;;9.88;2.58;;;19.00;99.80;;;;;;5030754;28;20090;-80
2021/05/12 09:40:12;;;;;;;12.05;2.38;;;19.30;99.30;;;;;;5044808;28;20156;-81
2021/05/12 09:42:41;;;;;;;5.20;1.60;;;19.30;97.90;;;;;;5061613;28;20045;-82
2021/05/12 09:45:24;;;;;;;8.90;1.40;;;19.10;98.10;;;;;;5047834;28;20071;-82
2021/05/12 09:47:53;;;;;;;10.43;2.00;;;19.10;97.80;;;;;;5044253;28;20071;-82
2021/05/12 09:50:38;;;;;;;4.05;1.35;;;19.20;97.20;;;;;;5059564;28;20432;-82
2021/05/12 09:53:13;;;;;;;14.73;2.42;;;19.40;97.80;;;;;;5045750;28;20076;-82
2021/05/12 09:55:45;;;;;;;12.70;2.03;;;19.40;96.20;;;;;;5044003;28;20088;-82
2021/05/12 09:58:14;;;;;;;8.52;1.73;;;19.30;96.80;;;;;;5044141;28;20131;-82
2021/05/12 10:00:43;;;;;;;9.18;1.65;;;19.50;97.10;;;;;;5046324;28;20071;-82
2021/05/12 10:03:12;;;;;;;7.38;1.40;;;19.70;95.70;;;;;;5047733;28;20109;-80
2021/05/12 10:05:56;;;;;;;9.60;1.67;;;19.90;96.40;;;;;;5038227;28;20508;-81
2021/05/12 10:08:32;;;;;;;9.45;2.67;;;20.20;92.50;;;;;;5046251;28;20430;-81
2021/05/12 10:11:11;;;;;;;8.13;1.40;;;20.30;94.40;;;;;;5036102;28;20064;-81
2021/05/12 10:13:38;;;;;;;10.27;2.33;;;20.30;92.80;;;;;;5045392;28;20118;-81
2021/05/12 10:16:10;;;;;;;10.75;1.30;;;20.30;93.80;;;;;;5044078;28;20045;-81
2021/05/12 10:18:43;;;;;;;7.22;1.50;;;20.40;95.00;;;;;;5057324;28;20496;-81
2021/05/12 10:21:10;;;;;;;10.20;2.25;;;20.50;93.40;;;;;;5038360;28;20047;-82
2021/05/12 10:23:37;;;;;;;9.02;1.77;;;20.60;91.50;;;;;;5046818;28;20057;-82
2021/05/12 10:26:07;;;;;;;14.18;2.45;;;20.50;91.00;;;;;;5046118;28;20052;-82
2021/05/12 10:28:40;;;;;;;10.88;1.50;;;20.40;90.20;;;;;;5045096;28;20719;-82
2021/05/12 10:31:07;;;;;;;11.07;1.92;;;20.50;93.30;;;;;;5044886;28;20116;-82
2021/05/12 10:33:51;;;;;;;7.43;1.83;;;20.60;91.60;;;;;;5044430;28;20049;-82
2021/05/12 10:36:21;;;;;;;11.40;2.17;;;20.80;90.60;;;;;;5042751;28;20914;-82
2021/05/12 10:38:48;;;;;;;8.10;1.38;;;21.00;90.70;;;;;;5045361;28;20049;-82
2021/05/12 10:41:46;;;;;;;7.45;1.35;;;21.00;90.40;;;;;;5044842;28;20052;-81
2021/05/12 10:44:21;;;;;;;10.82;1.60;;;21.20;91.00;;;;;;5047575;28;20048;-80
2021/05/12 10:47:09;;;;;;;9.65;1.38;;;21.30;90.40;;;;;;5042772;28;20115;-81
2021/05/12 10:49:47;;;;;;;7.13;1.42;;;21.50;90.20;;;;;;5059153;28;20103;-81
2021/05/12 10:52:14;;;;;;;7.05;1.40;;;21.60;89.90;;;;;;5039154;28;20174;-81
2021/05/12 10:54:44;;;;;;;10.80;2.00;;;21.70;86.50;;;;;;5042558;28;20122;-81
2021/05/12 10:57:31;;;;;;;7.75;1.50;;;21.80;83.10;;;;;;5044563;28;20055;-82
2021/05/12 10:59:58;;;;;;;10.73;1.60;;;21.60;85.10;;;;;;5036082;28;21870;-81
2021/05/12 11:03:01;;;;;;;11.38;2.42;;;21.60;86.70;;;;;;5047895;28;20072;-81
2021/05/12 11:06:01;;;;;;;12.57;2.07;;;21.90;89.30;;;;;;5047895;28;20044;-81
2021/05/12 11:08:28;;;;;;;9.10;1.70;;;22.10;83.40;;;;;;5063278;28;20047;-81
2021/05/12 11:11:03;;;;;;;6.50;1.27;;;22.20;81.20;;;;;;5046680;28;20049;-82
2021/05/12 11:13:35;;;;;;;8.05;1.80;;;22.30;77.40;;;;;;5047686;28;20107;-81
2021/05/12 11:16:04;;;;;;;11.30;2.17;;;22.40;78.00;;;;;;5039420;28;20056;-82
2021/05/12 11:18:34;;;;;;;8.57;1.30;;;22.10;78.80;;;;;;5046332;28;20059;-82
2021/05/12 11:21:24;;;;;;;11.80;2.05;;;22.00;75.70;;;;;;5045838;28;20072;-82
2021/05/12 11:24:01;;;;;;;8.73;1.67;;;21.90;78.70;;;;;;5048048;28;20051;-80
2021/05/12 11:26:56;;;;;;;6.32;1.55;;;22.00;78.40;;;;;;5034092;28;20053;-81
2021/05/12 11:32:08;;;;;;;7.82;1.70;;;22.20;73.40;;;;;;5042664;28;20111;-81
2021/05/12 11:34:36;;;;;;;12.55;2.10;;;22.20;76.30;;;;;;5063549;28;20051;-81
2021/05/12 11:37:13;;;;;;;5.72;1.13;;;22.50;76.80;;;;;;5039892;28;20751;-81
2021/05/12 11:39:58;;;;;;;6.00;1.00;;;22.80;75.20;;;;;;5043748;28;20049;-81
2021/05/12 11:42:31;;;;;;;8.48;2.17;;;22.90;72.20;;;;;;5061887;28;20048;-81
2021/05/12 11:45:07;;;;;;;;;;;22.80;72.30;;;;;;5051752;28;20053;-81
2021/05/12 11:47:41;;;;;;;6.28;1.33;;;22.90;73.40;;;;;;5026036;28;19920;-82
2021/05/12 11:50:22;;;;;;;8.02;1.48;;;23.40;71.90;;;;;;5059988;28;20582;-82
2021/05/12 11:52:50;;;;;;;7.75;1.30;;;23.80;68.00;;;;;;5009741;28;20072;-82
2021/05/12 11:55:20;;;;;;;10.75;1.77;;;24.30;71.20;;;;;;5030227;28;20049;-83
2021/05/12 11:57:50;;;;;;;9.68;1.73;;;24.70;67.80;;;;;;5023892;28;20052;-83
2021/05/12 12:00:20;;;;;;;9.65;1.90;;;25.10;66.90;;;;;;5051268;28;20041;-81
2021/05/12 12:02:54;;;;;;;6.15;1.30;;;25.60;59.50;;;;;;5044796;28;20439;-82
2021/05/12 12:05:22;;;;;;;9.15;1.58;;;26.00;61.80;;;;;;5045887;28;20071;-81
2021/05/12 12:07:48;;;;;;;7.38;1.60;;;26.50;58.90;;;;;;5039318;28;20468;-81
2021/05/12 12:10:17;;;;;;;6.53;1.40;;;26.70;59.50;;;;;;5057622;28;20053;-81
2021/05/12 12:12:59;;;;;;;9.63;1.30;;;26.50;54.60;;;;;;5048066;28;20143;-81
2021/05/12 12:15:26;;;;;;;4.78;1.10;;;26.00;56.50;;;;;;5045074;28;20059;-81
2021/05/12 12:17:52;;;;;;;9.68;1.50;;;25.80;56.10;;;;;;5048643;28;21047;-82
2021/05/12 12:20:29;;;;;;;7.22;2.03;;;26.40;54.40;;;;;;5045583;28;20049;-82
2021/05/12 12:22:57;;;;;;;4.90;0.98;;;27.00;54.40;;;;;;5038489;28;20138;-82
2021/05/12 12:25:33;;;;;;;7.80;1.80;;;26.80;52.70;;;;;;5044413;28;20079;-82
2021/05/12 12:28:01;;;;;;;7.78;1.60;;;26.70;53.70;;;;;;5043189;28;20072;-82
2021/05/12 12:30:28;;;;;;;7.32;1.55;;;27.20;53.50;;;;;;5039486;28;20057;-82
2021/05/12 12:32:54;;;;;;;7.72;1.67;;;27.00;51.40;;;;;;5062459;28;20048;-82
2021/05/12 12:35:21;;;;;;;7.95;1.55;;;26.70;54.40;;;;;;5060214;28;20085;-82
2021/05/12 12:37:48;;;;;;;5.05;1.38;;;27.10;54.60;;;;;;5037435;28;20044;-82
2021/05/12 12:40:15;;;;;;;5.10;1.20;;;27.60;52.00;;;;;;5048082;28;20048;-83
2021/05/12 12:42:52;;;;;;;8.32;2.22;;;27.40;53.00;;;;;;5062831;28;20140;-81
2021/05/12 12:45:31;;;;;;;6.15;1.38;;;27.60;50.40;;;;;;5055561;28;20044;-82
2021/05/12 12:47:59;;;;;;;7.50;1.48;;;27.30;49.40;;;;;;5033293;28;20196;-82
2021/05/12 12:50:29;;;;;;;9.18;1.83;;;27.70;51.00;;;;;;5046368;28;20489;-82
2021/05/12 12:52:56;;;;;;;6.50;1.15;;;27.90;48.10;;;;;;5044555;28;20431;-82
2021/05/12 12:55:31;;;;;;;10.98;2.42;;;27.50;49.30;;;;;;5063345;28;20052;-82